This demonstration page uses our WeatherBlox Daily Observations layout. Learn more.

41.55636, -103.73856

Hourly Observations for September 27, 2017

Temp ( °F °C ) Dew Point ( °F °C ) Humidity (%) Winds ( mph kmh ) Pressure ( in mb ) Visibility ( mi km ) Precip ( " mm )
12:53 am 00:53 Clear 42 5.6 35 1.7 76 76 Calm 30.23 1024 10 16.0934 0 0
1:53 am 01:53 Clear 38 3.3 34 1.1 86 86 W 5 7 30.25 1024 10 16.0934 0 0
2:53 am 02:53 Partly Cloudy 38 3.3 35 1.7 89 89 NNW 6 9 30.25 1024 10 16.0934 0 0
3:53 am 03:53 Clear 36 2.2 33 0.6 89 89 W 6 9 30.26 1025 10 16.0934 0 0
4:53 am 04:53 Clear 37 2.8 34 1.1 89 89 NW 6 9 30.27 1025 10 16.0934 0 0
5:53 am 05:53 Mostly Cloudy 38 3.3 35 1.7 89 89 WNW 5 7 30.29 1026 10 16.0934 0 0
6:53 am 06:53 Mostly Sunny 37 2.8 34 1.1 89 89 NW 6 9 30.32 1027 10 16.0934 0 0
7:53 am 07:53 Cloudy 42 5.6 37 2.8 82 82 NNW 5 7 30.34 1027 10 16.0934 0 0
8:53 am 08:53 Cloudy 44 6.7 40 4.4 85 85 W 3 6 30.35 1028 10 16.0934 0 0
9:53 am 09:53 Cloudy 47 8.3 40 4.4 77 77 undefined N/A 30.35 1028 10 16.0934 0 0
10:53 am 10:53 Partly Cloudy 55 12.8 41 5 59 59 undefined N/A 30.32 1027 10 16.0934 0 0
11:53 am 11:53 Cloudy 57 13.9 40 4.4 53 53 VRB 3 6 30.32 1027 10 16.0934 0 0
12:53 pm 12:53 Cloudy 61 16.1 39 3.9 44 44 Calm 30.3 1026 10 16.0934 0 0
1:53 pm 13:53 Cloudy 60 15.6 38 3.3 44 44 VRB 3 6 30.31 1026 10 16.0934 0 0
2:53 pm 14:53 Cloudy 62 16.7 36 2.2 38 38 S 3 6 30.3 1026 10 16.0934 0 0
3:53 pm 15:53 Cloudy 62 16.7 37 2.8 40 40 Calm 30.3 1026 10 16.0934 0 0
4:53 pm 16:53 Cloudy 61 16.1 40 4.4 46 46 WSW 8 13 30.29 1026 10 16.0934 0 0
5:53 pm 17:53 Cloudy with Light Rain 58 14.4 46 7.8 65 65 NW 5 7 30.3 1026 10 16.0934 0 0.0254
6:53 pm 18:53 Cloudy 56 13.3 46 7.8 70 70 N 3 6 30.31 1026 10 16.0934 0 0.0254
7:53 pm 19:53 Cloudy 55 12.8 47 8.3 74 74 Calm 30.3 1026 10 16.0934 0 0
8:53 pm 20:53 Cloudy 55 12.8 46 7.8 72 72 Calm 30.3 1026 10 16.0934 0 0
9:53 pm 21:53 Cloudy 54 12.2 47 8.3 77 77 Calm 30.3 1026 10 16.0934 0 0
10:53 pm 22:53 Cloudy 52 11.1 47 8.3 83 83 Calm 30.29 1026 10 16.0934 0 0
11:53 pm 23:53 Cloudy 50 10 45 7.2 83 83 NE 3 6 30.28 1026 10 16.0934 0 0

Powered by AerisWeather